sensor_id;sensor_type;location;lat;lon;timestamp;temperature;humidity
18611;DHT22;9435;52.122;5.502;2023-04-15T00:02:20;7.80;99.90
18611;DHT22;9435;52.122;5.502;2023-04-15T00:04:47;7.80;99.90
18611;DHT22;9435;52.122;5.502;2023-04-15T00:07:16;7.80;99.90
18611;DHT22;9435;52.122;5.502;2023-04-15T00:09:43;7.80;99.90
18611;DHT22;9435;52.122;5.502;2023-04-15T00:12:10;7.80;99.90
18611;DHT22;9435;52.122;5.502;2023-04-15T00:14:38;7.80;99.90
18611;DHT22;9435;52.122;5.502;2023-04-15T00:17:05;7.70;99.90
18611;DHT22;9435;52.122;5.502;2023-04-15T00:19:32;7.70;99.90
18611;DHT22;9435;52.122;5.502;2023-04-15T00:21:59;7.70;99.90
18611;DHT22;9435;52.122;5.502;2023-04-15T00:24:28;7.70;99.90
18611;DHT22;9435;52.122;5.502;2023-04-15T00:26:56;7.70;99.90
18611;DHT22;9435;52.122;5.502;2023-04-15T00:29:23;7.50;99.90
18611;DHT22;9435;52.122;5.502;2023-04-15T00:31:50;7.40;99.90
18611;DHT22;9435;52.122;5.502;2023-04-15T00:34:17;7.30;99.90
18611;DHT22;9435;52.122;5.502;2023-04-15T00:36:44;7.20;99.90
18611;DHT22;9435;52.122;5.502;2023-04-15T00:39:11;7.20;99.90
18611;DHT22;9435;52.122;5.502;2023-04-15T00:41:40;7.20;99.90
18611;DHT22;9435;52.122;5.502;2023-04-15T00:44:07;7.10;99.90
18611;DHT22;9435;52.122;5.502;2023-04-15T00:46:35;7.10;99.90
18611;DHT22;9435;52.122;5.502;2023-04-15T00:49:04;7.10;99.90
18611;DHT22;9435;52.122;5.502;2023-04-15T00:51:31;7.10;99.90
18611;DHT22;9435;52.122;5.502;2023-04-15T00:54:01;7.00;99.90
18611;DHT22;9435;52.122;5.502;2023-04-15T00:56:29;6.90;99.90
18611;DHT22;9435;52.122;5.502;2023-04-15T00:58:58;6.90;99.90
18611;DHT22;9435;52.122;5.502;2023-04-15T01:01:25;6.90;99.90
18611;DHT22;9435;52.122;5.502;2023-04-15T01:03:55;6.90;99.90
18611;DHT22;9435;52.122;5.502;2023-04-15T01:06:22;7.00;99.90
18611;DHT22;9435;52.122;5.502;2023-04-15T01:08:50;6.90;99.90
18611;DHT22;9435;52.122;5.502;2023-04-15T01:11:17;6.90;99.90
18611;DHT22;9435;52.122;5.502;2023-04-15T01:13:45;7.00;99.90
18611;DHT22;9435;52.122;5.502;2023-04-15T01:16:13;7.00;99.90
18611;DHT22;9435;52.122;5.502;2023-04-15T01:18:41;7.00;99.90
18611;DHT22;9435;52.122;5.502;2023-04-15T01:21:08;6.90;99.90
18611;DHT22;9435;52.122;5.502;2023-04-15T01:23:37;6.90;99.90
18611;DHT22;9435;52.122;5.502;2023-04-15T01:26:06;6.80;99.90
18611;DHT22;9435;52.122;5.502;2023-04-15T01:28:34;6.70;99.90
18611;DHT22;9435;52.122;5.502;2023-04-15T01:31:09;6.70;99.90
18611;DHT22;9435;52.122;5.502;2023-04-15T01:33:37;6.70;99.90
18611;DHT22;9435;52.122;5.502;2023-04-15T01:36:05;6.70;99.90
18611;DHT22;9435;52.122;5.502;2023-04-15T01:38:33;6.60;99.90
18611;DHT22;9435;52.122;5.502;2023-04-15T01:41:00;6.60;99.90
18611;DHT22;9435;52.122;5.502;2023-04-15T01:43:30;6.60;99.90
18611;DHT22;9435;52.122;5.502;2023-04-15T01:45:57;6.60;99.90
18611;DHT22;9435;52.122;5.502;2023-04-15T01:48:24;6.60;99.90
18611;DHT22;9435;52.122;5.502;2023-04-15T01:50:53;6.60;99.90
18611;DHT22;9435;52.122;5.502;2023-04-15T01:53:22;6.60;99.90
18611;DHT22;9435;52.122;5.502;2023-04-15T01:55:49;6.60;99.90
18611;DHT22;9435;52.122;5.502;2023-04-15T01:58:16;6.60;99.90
18611;DHT22;9435;52.122;5.502;2023-04-15T02:00:45;6.50;99.90
18611;DHT22;9435;52.122;5.502;2023-04-15T02:03:12;6.50;99.90
18611;DHT22;9435;52.122;5.502;2023-04-15T02:05:39;6.50;99.90
18611;DHT22;9435;52.122;5.502;2023-04-15T02:08:06;6.50;99.90
18611;DHT22;9435;52.122;5.502;2023-04-15T02:10:33;6.40;99.90
18611;DHT22;9435;52.122;5.502;2023-04-15T02:13:00;6.40;99.90
18611;DHT22;9435;52.122;5.502;2023-04-15T02:15:27;6.40;99.90
18611;DHT22;9435;52.122;5.502;2023-04-15T02:17:56;6.40;99.90
18611;DHT22;9435;52.122;5.502;2023-04-15T02:20:25;6.40;99.90
18611;DHT22;9435;52.122;5.502;2023-04-15T02:22:52;6.30;99.90
18611;DHT22;9435;52.122;5.502;2023-04-15T02:25:19;6.30;99.90
18611;DHT22;9435;52.122;5.502;2023-04-15T02:27:46;6.30;99.90
18611;DHT22;9435;52.122;5.502;2023-04-15T02:30:13;6.30;99.90
18611;DHT22;9435;52.122;5.502;2023-04-15T02:32:40;6.30;99.90
18611;DHT22;9435;52.122;5.502;2023-04-15T02:35:11;6.30;99.90
18611;DHT22;9435;52.122;5.502;2023-04-15T02:37:38;6.30;99.90
18611;DHT22;9435;52.122;5.502;2023-04-15T02:40:09;6.30;99.90
18611;DHT22;9435;52.122;5.502;2023-04-15T02:42:37;6.30;99.90
18611;DHT22;9435;52.122;5.502;2023-04-15T02:45:05;6.30;99.90
18611;DHT22;9435;52.122;5.502;2023-04-15T02:47:33;6.30;99.90
18611;DHT22;9435;52.122;5.502;2023-04-15T02:50:01;6.30;99.90
18611;DHT22;9435;52.122;5.502;2023-04-15T02:52:30;6.30;99.90
18611;DHT22;9435;52.122;5.502;2023-04-15T02:54:57;6.20;99.90
18611;DHT22;9435;52.122;5.502;2023-04-15T02:57:25;6.20;99.90
18611;DHT22;9435;52.122;5.502;2023-04-15T02:59:53;6.20;99.90
18611;DHT22;9435;52.122;5.502;2023-04-15T03:02:20;6.20;99.90
18611;DHT22;9435;52.122;5.502;2023-04-15T03:04:47;6.20;99.90
18611;DHT22;9435;52.122;5.502;2023-04-15T03:07:16;6.10;99.90
18611;DHT22;9435;52.122;5.502;2023-04-15T03:09:44;6.20;99.90
18611;DHT22;9435;52.122;5.502;2023-04-15T03:12:12;6.20;99.90
18611;DHT22;9435;52.122;5.502;2023-04-15T03:14:39;6.20;99.90
18611;DHT22;9435;52.122;5.502;2023-04-15T03:17:06;6.20;99.90
18611;DHT22;9435;52.122;5.502;2023-04-15T03:19:33;6.20;99.90
18611;DHT22;9435;52.122;5.502;2023-04-15T03:22:00;6.10;99.90
18611;DHT22;9435;52.122;5.502;2023-04-15T03:24:27;6.10;99.90
18611;DHT22;9435;52.122;5.502;2023-04-15T03:26:56;6.10;99.90
18611;DHT22;9435;52.122;5.502;2023-04-15T03:29:23;6.10;99.90
18611;DHT22;9435;52.122;5.502;2023-04-15T03:31:51;6.10;99.90
18611;DHT22;9435;52.122;5.502;2023-04-15T03:34:18;6.10;99.90
18611;DHT22;9435;52.122;5.502;2023-04-15T03:36:45;6.10;99.90
18611;DHT22;9435;52.122;5.502;2023-04-15T03:39:12;6.10;99.90
18611;DHT22;9435;52.122;5.502;2023-04-15T03:41:39;6.00;99.90
18611;DHT22;9435;52.122;5.502;2023-04-15T03:44:08;6.00;99.90
18611;DHT22;9435;52.122;5.502;2023-04-15T03:46:35;5.90;99.90
18611;DHT22;9435;52.122;5.502;2023-04-15T03:49:02;5.90;99.90
18611;DHT22;9435;52.122;5.502;2023-04-15T03:51:29;5.80;99.90
18611;DHT22;9435;52.122;5.502;2023-04-15T03:53:57;5.80;99.90
18611;DHT22;9435;52.122;5.502;2023-04-15T03:56:24;5.70;99.90
18611;DHT22;9435;52.122;5.502;2023-04-15T03:58:51;5.70;99.90
18611;DHT22;9435;52.122;5.502;2023-04-15T04:01:20;5.70;99.90
18611;DHT22;9435;52.122;5.502;2023-04-15T04:03:47;5.70;99.90
18611;DHT22;9435;52.122;5.502;2023-04-15T04:06:14;5.70;99.90
18611;DHT22;9435;52.122;5.502;2023-04-15T04:08:41;5.70;99.90
18611;DHT22;9435;52.122;5.502;2023-04-15T04:11:08;5.70;99.90
18611;DHT22;9435;52.122;5.502;2023-04-15T04:13:35;5.70;99.90
18611;DHT22;9435;52.122;5.502;2023-04-15T04:16:02;5.60;99.90
18611;DHT22;9435;52.122;5.502;2023-04-15T04:18:32;5.60;99.90
18611;DHT22;9435;52.122;5.502;2023-04-15T04:20:59;5.60;99.90
18611;DHT22;9435;52.122;5.502;2023-04-15T04:23:26;5.60;99.90
18611;DHT22;9435;52.122;5.502;2023-04-15T04:25:53;5.60;99.90
18611;DHT22;9435;52.122;5.502;2023-04-15T04:28:21;5.50;99.90
18611;DHT22;9435;52.122;5.502;2023-04-15T04:30:48;5.50;99.90
18611;DHT22;9435;52.122;5.502;2023-04-15T04:33:15;5.50;99.90
18611;DHT22;9435;52.122;5.502;2023-04-15T04:35:43;5.50;99.90
18611;DHT22;9435;52.122;5.502;2023-04-15T04:38:10;5.50;99.90
18611;DHT22;9435;52.122;5.502;2023-04-15T04:40:38;5.50;99.90
18611;DHT22;9435;52.122;5.502;2023-04-15T04:43:05;5.40;99.90
18611;DHT22;9435;52.122;5.502;2023-04-15T04:45:32;5.40;99.90
18611;DHT22;9435;52.122;5.502;2023-04-15T04:47:59;5.30;99.90
18611;DHT22;9435;52.122;5.502;2023-04-15T04:50:26;5.30;99.90
18611;DHT22;9435;52.122;5.502;2023-04-15T04:52:55;5.30;99.90
18611;DHT22;9435;52.122;5.502;2023-04-15T04:55:22;5.30;99.90
18611;DHT22;9435;52.122;5.502;2023-04-15T04:57:49;5.30;99.90
18611;DHT22;9435;52.122;5.502;2023-04-15T05:00:17;5.40;99.90
18611;DHT22;9435;52.122;5.502;2023-04-15T05:02:44;5.30;99.90
18611;DHT22;9435;52.122;5.502;2023-04-15T05:05:11;5.30;99.90
18611;DHT22;9435;52.122;5.502;2023-04-15T05:07:38;5.30;99.90
18611;DHT22;9435;52.122;5.502;2023-04-15T05:10:08;5.40;99.90
18611;DHT22;9435;52.122;5.502;2023-04-15T05:12:35;5.40;99.90
18611;DHT22;9435;52.122;5.502;2023-04-15T05:15:03;5.30;99.90
18611;DHT22;9435;52.122;5.502;2023-04-15T05:17:30;5.30;99.90
18611;DHT22;9435;52.122;5.502;2023-04-15T05:19:59;5.40;99.90
18611;DHT22;9435;52.122;5.502;2023-04-15T05:22:26;5.40;99.90
18611;DHT22;9435;52.122;5.502;2023-04-15T05:24:55;5.40;99.90
18611;DHT22;9435;52.122;5.502;2023-04-15T05:27:23;5.40;99.90
18611;DHT22;9435;52.122;5.502;2023-04-15T05:29:50;5.40;99.90
18611;DHT22;9435;52.122;5.502;2023-04-15T05:32:17;5.40;99.90
18611;DHT22;9435;52.122;5.502;2023-04-15T05:34:44;5.50;99.90
18611;DHT22;9435;52.122;5.502;2023-04-15T05:37:11;5.50;99.90
18611;DHT22;9435;52.122;5.502;2023-04-15T05:39:38;5.70;99.90
18611;DHT22;9435;52.122;5.502;2023-04-15T05:42:05;5.80;99.90
18611;DHT22;9435;52.122;5.502;2023-04-15T05:44:34;5.80;99.90
18611;DHT22;9435;52.122;5.502;2023-04-15T05:47:08;5.90;99.90
18611;DHT22;9435;52.122;5.502;2023-04-15T05:49:36;6.00;99.90
18611;DHT22;9435;52.122;5.502;2023-04-15T05:52:03;6.00;99.90
18611;DHT22;9435;52.122;5.502;2023-04-15T05:54:30;6.00;99.90
18611;DHT22;9435;52.122;5.502;2023-04-15T05:56:58;6.10;99.90
18611;DHT22;9435;52.122;5.502;2023-04-15T05:59:25;6.10;99.90
18611;DHT22;9435;52.122;5.502;2023-04-15T06:01:54;6.20;99.90
18611;DHT22;9435;52.122;5.502;2023-04-15T06:04:21;6.20;99.90
18611;DHT22;9435;52.122;5.502;2023-04-15T06:06:48;6.20;99.90
18611;DHT22;9435;52.122;5.502;2023-04-15T06:09:15;6.20;99.90
18611;DHT22;9435;52.122;5.502;2023-04-15T06:11:42;6.20;99.90
18611;DHT22;9435;52.122;5.502;2023-04-15T06:14:09;6.30;99.90
18611;DHT22;9435;52.122;5.502;2023-04-15T06:16:36;6.30;99.90
18611;DHT22;9435;52.122;5.502;2023-04-15T06:19:05;6.30;99.90
18611;DHT22;9435;52.122;5.502;2023-04-15T06:21:32;6.30;99.90
18611;DHT22;9435;52.122;5.502;2023-04-15T06:23:59;6.40;99.90
18611;DHT22;9435;52.122;5.502;2023-04-15T06:26:27;6.60;99.90
18611;DHT22;9435;52.122;5.502;2023-04-15T06:28:55;6.60;99.90
18611;DHT22;9435;52.122;5.502;2023-04-15T06:31:22;6.80;99.90
18611;DHT22;9435;52.122;5.502;2023-04-15T06:33:49;7.00;99.90
18611;DHT22;9435;52.122;5.502;2023-04-15T06:36:18;7.20;99.90
18611;DHT22;9435;52.122;5.502;2023-04-15T06:38:45;7.40;99.90
18611;DHT22;9435;52.122;5.502;2023-04-15T06:41:12;7.50;99.90
18611;DHT22;9435;52.122;5.502;2023-04-15T06:43:40;7.70;99.90
18611;DHT22;9435;52.122;5.502;2023-04-15T06:46:07;7.80;99.90
18611;DHT22;9435;52.122;5.502;2023-04-15T06:48:35;8.00;99.90
18611;DHT22;9435;52.122;5.502;2023-04-15T06:51:02;8.10;99.90
18611;DHT22;9435;52.122;5.502;2023-04-15T06:53:30;8.20;99.90
18611;DHT22;9435;52.122;5.502;2023-04-15T06:55:57;8.30;99.90
18611;DHT22;9435;52.122;5.502;2023-04-15T06:58:25;8.50;99.90
18611;DHT22;9435;52.122;5.502;2023-04-15T07:00:52;8.80;99.90
18611;DHT22;9435;52.122;5.502;2023-04-15T07:03:19;8.80;99.90
18611;DHT22;9435;52.122;5.502;2023-04-15T07:05:47;9.00;99.90
18611;DHT22;9435;52.122;5.502;2023-04-15T07:08:14;9.00;99.90
18611;DHT22;9435;52.122;5.502;2023-04-15T07:10:42;8.90;99.90
18611;DHT22;9435;52.122;5.502;2023-04-15T07:13:09;8.90;99.90
18611;DHT22;9435;52.122;5.502;2023-04-15T07:15:37;9.00;99.90
18611;DHT22;9435;52.122;5.502;2023-04-15T07:18:04;9.00;99.90
18611;DHT22;9435;52.122;5.502;2023-04-15T07:20:31;9.00;99.90
18611;DHT22;9435;52.122;5.502;2023-04-15T07:22:58;9.20;99.90
18611;DHT22;9435;52.122;5.502;2023-04-15T07:25:25;9.40;99.90
18611;DHT22;9435;52.122;5.502;2023-04-15T07:27:53;9.60;99.90
18611;DHT22;9435;52.122;5.502;2023-04-15T07:30:20;9.90;99.90
18611;DHT22;9435;52.122;5.502;2023-04-15T07:32:48;10.10;99.90
18611;DHT22;9435;52.122;5.502;2023-04-15T07:35:15;10.20;99.90
18611;DHT22;9435;52.122;5.502;2023-04-15T07:37:42;10.30;99.90
18611;DHT22;9435;52.122;5.502;2023-04-15T07:40:10;10.60;99.90
18611;DHT22;9435;52.122;5.502;2023-04-15T07:42:37;10.50;99.90
18611;DHT22;9435;52.122;5.502;2023-04-15T07:45:06;10.50;99.90
18611;DHT22;9435;52.122;5.502;2023-04-15T07:47:34;10.50;99.90
18611;DHT22;9435;52.122;5.502;2023-04-15T07:50:01;10.30;99.90
18611;DHT22;9435;52.122;5.502;2023-04-15T07:52:28;10.40;99.90
18611;DHT22;9435;52.122;5.502;2023-04-15T07:54:55;10.60;99.90
18611;DHT22;9435;52.122;5.502;2023-04-15T07:57:22;10.60;99.90
18611;DHT22;9435;52.122;5.502;2023-04-15T07:59:49;10.60;99.90
18611;DHT22;9435;52.122;5.502;2023-04-15T08:02:18;10.70;99.90
18611;DHT22;9435;52.122;5.502;2023-04-15T08:04:45;10.70;99.90
18611;DHT22;9435;52.122;5.502;2023-04-15T08:07:12;10.80;99.90
18611;DHT22;9435;52.122;5.502;2023-04-15T08:09:39;10.80;99.90
18611;DHT22;9435;52.122;5.502;2023-04-15T08:12:06;10.80;99.90
18611;DHT22;9435;52.122;5.502;2023-04-15T08:14:37;10.70;99.90
18611;DHT22;9435;52.122;5.502;2023-04-15T08:17:04;10.60;99.90
18611;DHT22;9435;52.122;5.502;2023-04-15T08:19:33;10.70;99.90
18611;DHT22;9435;52.122;5.502;2023-04-15T08:22:00;10.70;99.90
18611;DHT22;9435;52.122;5.502;2023-04-15T08:24:27;10.90;99.90
18611;DHT22;9435;52.122;5.502;2023-04-15T08:26:56;10.90;99.90
18611;DHT22;9435;52.122;5.502;2023-04-15T08:29:23;11.00;99.90
18611;DHT22;9435;52.122;5.502;2023-04-15T08:31:50;10.90;99.90
18611;DHT22;9435;52.122;5.502;2023-04-15T08:34:18;10.80;99.90
18611;DHT22;9435;52.122;5.502;2023-04-15T08:36:47;10.60;99.90
18611;DHT22;9435;52.122;5.502;2023-04-15T08:39:14;10.70;99.90
18611;DHT22;9435;52.122;5.502;2023-04-15T08:41:45;10.60;99.90
18611;DHT22;9435;52.122;5.502;2023-04-15T08:44:13;10.50;99.90
18611;DHT22;9435;52.122;5.502;2023-04-15T08:46:41;10.70;99.90
18611;DHT22;9435;52.122;5.502;2023-04-15T08:49:10;10.70;99.90
18611;DHT22;9435;52.122;5.502;2023-04-15T08:51:39;10.70;99.90
18611;DHT22;9435;52.122;5.502;2023-04-15T08:54:08;10.80;99.90
18611;DHT22;9435;52.122;5.502;2023-04-15T08:56:35;11.10;99.90
18611;DHT22;9435;52.122;5.502;2023-04-15T08:59:06;10.90;99.90
18611;DHT22;9435;52.122;5.502;2023-04-15T09:01:33;11.00;99.90
18611;DHT22;9435;52.122;5.502;2023-04-15T09:04:02;11.20;99.90
18611;DHT22;9435;52.122;5.502;2023-04-15T09:06:31;11.30;99.90
18611;DHT22;9435;52.122;5.502;2023-04-15T09:08:58;11.10;99.90
18611;DHT22;9435;52.122;5.502;2023-04-15T09:11:27;11.00;99.90
18611;DHT22;9435;52.122;5.502;2023-04-15T09:13:55;11.00;99.90
18611;DHT22;9435;52.122;5.502;2023-04-15T09:16:22;11.00;99.90
18611;DHT22;9435;52.122;5.502;2023-04-15T09:18:50;11.00;99.90
18611;DHT22;9435;52.122;5.502;2023-04-15T09:21:17;10.90;99.90
18611;DHT22;9435;52.122;5.502;2023-04-15T09:23:54;11.00;99.90
18611;DHT22;9435;52.122;5.502;2023-04-15T09:26:32;10.80;99.90
18611;DHT22;9435;52.122;5.502;2023-04-15T09:29:06;10.90;99.90
18611;DHT22;9435;52.122;5.502;2023-04-15T09:31:34;10.80;99.90
18611;DHT22;9435;52.122;5.502;2023-04-15T09:34:01;10.80;99.90
18611;DHT22;9435;52.122;5.502;2023-04-15T09:36:28;10.90;99.90
18611;DHT22;9435;52.122;5.502;2023-04-15T09:38:57;11.20;99.90
18611;DHT22;9435;52.122;5.502;2023-04-15T09:41:25;11.10;99.90
18611;DHT22;9435;52.122;5.502;2023-04-15T09:43:54;11.10;99.90
18611;DHT22;9435;52.122;5.502;2023-04-15T09:46:39;11.10;99.90
18611;DHT22;9435;52.122;5.502;2023-04-15T09:49:08;11.10;99.90
18611;DHT22;9435;52.122;5.502;2023-04-15T09:51:35;11.20;99.90
18611;DHT22;9435;52.122;5.502;2023-04-15T09:54:03;11.40;99.90
18611;DHT22;9435;52.122;5.502;2023-04-15T09:56:33;11.60;99.90
18611;DHT22;9435;52.122;5.502;2023-04-15T09:59:02;11.80;99.90
18611;DHT22;9435;52.122;5.502;2023-04-15T10:01:29;11.90;99.90
18611;DHT22;9435;52.122;5.502;2023-04-15T10:03:57;12.10;99.90
18611;DHT22;9435;52.122;5.502;2023-04-15T10:06:25;12.10;99.90
18611;DHT22;9435;52.122;5.502;2023-04-15T10:08:53;12.10;99.90
18611;DHT22;9435;52.122;5.502;2023-04-15T10:11:21;12.00;99.90
18611;DHT22;9435;52.122;5.502;2023-04-15T10:13:49;12.30;99.90
18611;DHT22;9435;52.122;5.502;2023-04-15T10:16:19;12.20;99.90
18611;DHT22;9435;52.122;5.502;2023-04-15T10:18:50;12.10;99.90
18611;DHT22;9435;52.122;5.502;2023-04-15T10:21:17;12.10;99.90
18611;DHT22;9435;52.122;5.502;2023-04-15T10:23:45;12.20;99.90
18611;DHT22;9435;52.122;5.502;2023-04-15T10:26:12;12.20;99.90
18611;DHT22;9435;52.122;5.502;2023-04-15T10:28:40;12.20;99.90
18611;DHT22;9435;52.122;5.502;2023-04-15T10:31:08;12.50;99.90
18611;DHT22;9435;52.122;5.502;2023-04-15T10:33:40;12.20;99.90
18611;DHT22;9435;52.122;5.502;2023-04-15T10:36:07;11.80;99.90
18611;DHT22;9435;52.122;5.502;2023-04-15T10:38:36;11.60;99.90
18611;DHT22;9435;52.122;5.502;2023-04-15T10:41:17;11.70;99.90
18611;DHT22;9435;52.122;5.502;2023-04-15T10:43:51;12.30;99.90
18611;DHT22;9435;52.122;5.502;2023-04-15T10:46:20;12.40;99.90
18611;DHT22;9435;52.122;5.502;2023-04-15T10:48:50;12.50;99.90
18611;DHT22;9435;52.122;5.502;2023-04-15T10:51:27;12.30;99.90
18611;DHT22;9435;52.122;5.502;2023-04-15T10:53:56;12.10;99.90
18611;DHT22;9435;52.122;5.502;2023-04-15T10:56:24;12.00;99.90
18611;DHT22;9435;52.122;5.502;2023-04-15T10:58:51;12.30;99.90
18611;DHT22;9435;52.122;5.502;2023-04-15T11:01:19;12.30;99.90
18611;DHT22;9435;52.122;5.502;2023-04-15T11:03:47;12.40;99.90
18611;DHT22;9435;52.122;5.502;2023-04-15T11:06:17;12.30;99.90
18611;DHT22;9435;52.122;5.502;2023-04-15T11:08:55;11.90;99.90
18611;DHT22;9435;52.122;5.502;2023-04-15T11:14:27;12.60;99.90
18611;DHT22;9435;52.122;5.502;2023-04-15T11:16:54;12.70;99.90
18611;DHT22;9435;52.122;5.502;2023-04-15T11:19:21;12.80;99.90
18611;DHT22;9435;52.122;5.502;2023-04-15T11:21:49;12.70;99.90
18611;DHT22;9435;52.122;5.502;2023-04-15T11:24:23;12.60;99.90
18611;DHT22;9435;52.122;5.502;2023-04-15T11:26:56;12.80;99.90
18611;DHT22;9435;52.122;5.502;2023-04-15T11:29:28;12.90;99.90
18611;DHT22;9435;52.122;5.502;2023-04-15T11:32:04;13.30;99.90
18611;DHT22;9435;52.122;5.502;2023-04-15T11:34:32;13.30;99.90
18611;DHT22;9435;52.122;5.502;2023-04-15T11:37:03;13.50;99.90
18611;DHT22;9435;52.122;5.502;2023-04-15T11:39:31;14.00;99.90
18611;DHT22;9435;52.122;5.502;2023-04-15T11:41:58;14.00;99.90
18611;DHT22;9435;52.122;5.502;2023-04-15T11:44:25;13.50;99.90
18611;DHT22;9435;52.122;5.502;2023-04-15T11:46:54;13.20;99.90
18611;DHT22;9435;52.122;5.502;2023-04-15T11:49:28;12.90;99.90
18611;DHT22;9435;52.122;5.502;2023-04-15T11:51:58;13.40;99.90
18611;DHT22;9435;52.122;5.502;2023-04-15T11:54:27;13.00;99.90
18611;DHT22;9435;52.122;5.502;2023-04-15T11:56:54;13.40;99.90
18611;DHT22;9435;52.122;5.502;2023-04-15T11:59:22;13.30;99.90
18611;DHT22;9435;52.122;5.502;2023-04-15T12:01:49;13.10;99.90
18611;DHT22;9435;52.122;5.502;2023-04-15T12:04:17;13.10;99.90
18611;DHT22;9435;52.122;5.502;2023-04-15T12:06:47;12.90;99.90
18611;DHT22;9435;52.122;5.502;2023-04-15T12:09:15;12.90;99.90
18611;DHT22;9435;52.122;5.502;2023-04-15T12:11:44;12.70;99.90
18611;DHT22;9435;52.122;5.502;2023-04-15T12:14:18;12.80;99.90
18611;DHT22;9435;52.122;5.502;2023-04-15T12:16:46;12.80;99.90
18611;DHT22;9435;52.122;5.502;2023-04-15T12:19:16;12.70;99.90
18611;DHT22;9435;52.122;5.502;2023-04-15T12:21:45;12.70;99.90
18611;DHT22;9435;52.122;5.502;2023-04-15T12:24:12;12.60;99.90
18611;DHT22;9435;52.122;5.502;2023-04-15T12:26:45;12.80;99.90
18611;DHT22;9435;52.122;5.502;2023-04-15T12:29:13;13.30;99.90
18611;DHT22;9435;52.122;5.502;2023-04-15T12:31:51;12.80;99.90
18611;DHT22;9435;52.122;5.502;2023-04-15T12:34:25;12.20;99.90
18611;DHT22;9435;52.122;5.502;2023-04-15T12:36:54;12.50;99.90
18611;DHT22;9435;52.122;5.502;2023-04-15T12:39:23;13.00;99.90
18611;DHT22;9435;52.122;5.502;2023-04-15T12:41:51;13.20;99.90
18611;DHT22;9435;52.122;5.502;2023-04-15T12:44:20;12.90;99.90
18611;DHT22;9435;52.122;5.502;2023-04-15T12:46:48;12.60;99.90
18611;DHT22;9435;52.122;5.502;2023-04-15T12:49:16;12.60;99.90
18611;DHT22;9435;52.122;5.502;2023-04-15T12:51:45;12.80;99.90
18611;DHT22;9435;52.122;5.502;2023-04-15T12:54:12;12.80;99.90
18611;DHT22;9435;52.122;5.502;2023-04-15T12:56:39;12.70;99.90
18611;DHT22;9435;52.122;5.502;2023-04-15T12:59:08;12.70;99.90
18611;DHT22;9435;52.122;5.502;2023-04-15T13:01:35;12.60;99.90
18611;DHT22;9435;52.122;5.502;2023-04-15T13:04:02;12.80;99.90
18611;DHT22;9435;52.122;5.502;2023-04-15T13:06:29;13.50;99.90
18611;DHT22;9435;52.122;5.502;2023-04-15T13:08:58;13.20;99.90
18611;DHT22;9435;52.122;5.502;2023-04-15T13:11:26;12.90;99.90
18611;DHT22;9435;52.122;5.502;2023-04-15T13:13:55;12.90;99.90
18611;DHT22;9435;52.122;5.502;2023-04-15T13:16:24;12.80;99.90
18611;DHT22;9435;52.122;5.502;2023-04-15T13:18:51;12.70;99.90
18611;DHT22;9435;52.122;5.502;2023-04-15T13:21:18;12.70;99.90
18611;DHT22;9435;52.122;5.502;2023-04-15T13:23:48;12.50;99.90
18611;DHT22;9435;52.122;5.502;2023-04-15T13:26:16;12.30;99.90
18611;DHT22;9435;52.122;5.502;2023-04-15T13:28:43;12.30;99.90
18611;DHT22;9435;52.122;5.502;2023-04-15T13:31:11;12.60;99.90
18611;DHT22;9435;52.122;5.502;2023-04-15T13:33:39;12.70;99.90
18611;DHT22;9435;52.122;5.502;2023-04-15T13:36:07;12.80;99.90
18611;DHT22;9435;52.122;5.502;2023-04-15T13:38:34;12.40;99.90
18611;DHT22;9435;52.122;5.502;2023-04-15T13:41:02;12.30;99.90
18611;DHT22;9435;52.122;5.502;2023-04-15T13:43:29;12.20;99.90
18611;DHT22;9435;52.122;5.502;2023-04-15T13:45:56;12.30;99.90
18611;DHT22;9435;52.122;5.502;2023-04-15T13:48:23;12.10;99.90
18611;DHT22;9435;52.122;5.502;2023-04-15T13:50:51;12.10;99.90
18611;DHT22;9435;52.122;5.502;2023-04-15T13:53:18;11.90;99.90
18611;DHT22;9435;52.122;5.502;2023-04-15T13:55:45;11.80;99.90
18611;DHT22;9435;52.122;5.502;2023-04-15T13:58:12;11.80;99.90
18611;DHT22;9435;52.122;5.502;2023-04-15T14:00:40;11.50;99.90
18611;DHT22;9435;52.122;5.502;2023-04-15T14:03:07;11.50;99.90
18611;DHT22;9435;52.122;5.502;2023-04-15T14:05:34;11.70;99.90
18611;DHT22;9435;52.122;5.502;2023-04-15T14:08:02;11.80;99.90
18611;DHT22;9435;52.122;5.502;2023-04-15T14:10:29;11.80;99.90
18611;DHT22;9435;52.122;5.502;2023-04-15T14:12:56;11.60;99.90
18611;DHT22;9435;52.122;5.502;2023-04-15T14:15:23;11.50;99.90
18611;DHT22;9435;52.122;5.502;2023-04-15T14:17:50;11.50;99.90
18611;DHT22;9435;52.122;5.502;2023-04-15T14:20:17;11.60;99.90
18611;DHT22;9435;52.122;5.502;2023-04-15T14:22:44;11.20;99.90
18611;DHT22;9435;52.122;5.502;2023-04-15T14:25:13;11.30;99.90
18611;DHT22;9435;52.122;5.502;2023-04-15T14:27:40;11.10;99.90
18611;DHT22;9435;52.122;5.502;2023-04-15T14:30:08;11.20;99.90
18611;DHT22;9435;52.122;5.502;2023-04-15T14:32:35;11.10;99.90
18611;DHT22;9435;52.122;5.502;2023-04-15T14:35:02;11.00;99.90
18611;DHT22;9435;52.122;5.502;2023-04-15T14:37:29;11.10;99.90
18611;DHT22;9435;52.122;5.502;2023-04-15T14:39:56;11.10;99.90
18611;DHT22;9435;52.122;5.502;2023-04-15T14:42:25;11.20;99.90
18611;DHT22;9435;52.122;5.502;2023-04-15T14:44:52;11.00;99.90
18611;DHT22;9435;52.122;5.502;2023-04-15T14:47:19;11.00;99.90
18611;DHT22;9435;52.122;5.502;2023-04-15T14:49:46;10.80;99.90
18611;DHT22;9435;52.122;5.502;2023-04-15T14:52:13;10.70;99.90
18611;DHT22;9435;52.122;5.502;2023-04-15T14:54:40;10.70;99.90
18611;DHT22;9435;52.122;5.502;2023-04-15T14:57:07;10.80;99.90
18611;DHT22;9435;52.122;5.502;2023-04-15T14:59:35;10.70;99.90
18611;DHT22;9435;52.122;5.502;2023-04-15T15:02:02;10.70;99.90
18611;DHT22;9435;52.122;5.502;2023-04-15T15:04:29;10.70;99.90
18611;DHT22;9435;52.122;5.502;2023-04-15T15:06:58;10.60;99.90
18611;DHT22;9435;52.122;5.502;2023-04-15T15:09:25;10.50;99.90
18611;DHT22;9435;52.122;5.502;2023-04-15T15:11:52;10.60;99.90
18611;DHT22;9435;52.122;5.502;2023-04-15T15:14:19;10.50;99.90
18611;DHT22;9435;52.122;5.502;2023-04-15T15:16:48;10.50;99.90
18611;DHT22;9435;52.122;5.502;2023-04-15T15:19:15;10.40;99.90
18611;DHT22;9435;52.122;5.502;2023-04-15T15:21:42;10.40;99.90
18611;DHT22;9435;52.122;5.502;2023-04-15T15:24:10;10.50;99.90
18611;DHT22;9435;52.122;5.502;2023-04-15T15:26:37;10.50;99.90
18611;DHT22;9435;52.122;5.502;2023-04-15T15:29:04;10.40;99.90
18611;DHT22;9435;52.122;5.502;2023-04-15T15:31:32;10.60;99.90
18611;DHT22;9435;52.122;5.502;2023-04-15T15:34:01;10.50;99.90
18611;DHT22;9435;52.122;5.502;2023-04-15T15:36:29;10.20;99.90
18611;DHT22;9435;52.122;5.502;2023-04-15T15:38:57;10.10;99.90
18611;DHT22;9435;52.122;5.502;2023-04-15T15:41:25;10.00;99.90
18611;DHT22;9435;52.122;5.502;2023-04-15T15:43:52;10.10;99.90
18611;DHT22;9435;52.122;5.502;2023-04-15T15:46:20;10.10;99.90
18611;DHT22;9435;52.122;5.502;2023-04-15T15:48:48;10.30;99.90
18611;DHT22;9435;52.122;5.502;2023-04-15T15:51:17;10.10;99.90
18611;DHT22;9435;52.122;5.502;2023-04-15T15:53:44;10.00;99.90
18611;DHT22;9435;52.122;5.502;2023-04-15T15:56:11;9.90;99.90
18611;DHT22;9435;52.122;5.502;2023-04-15T15:58:38;9.80;99.90
18611;DHT22;9435;52.122;5.502;2023-04-15T16:01:05;9.80;99.90